Lesley Pg — MXUG5 — position and weather

sailwx.info

Track history (hours):
 
Tides and Currents Weather Stations Pressure Air Temp Water Temp Dewpoint Dewpoint Depression Visibility Wind Speed Wind Dir Waves Ship Positions

Lesley Pg

Last reported at 2015-May-24 05:29 UTC. Time now 2015-May-24 13:16 UTC.
Position N 13°60' W 060°41'.

Length 102 m; draft 6.1 m.

Type: Tanker. MMSI: 234910000.

Date/timePositionNaut miles runAvg speedWind from/ knotsBaromVisibWave heightAir tempDewpointWater temp
2015-May-24 05:29N 13°60' W 060°41'10 8.7
2015-May-24 04:22N 14°07' W 060°48'8 9.4
2015-May-24 03:34N 14°12' W 060°54'10 9.6
2015-May-24 02:33N 14°19' W 061°01'10 9.6
2015-May-24 01:34N 14°26' W 061°07'9 8.5
2015-May-24 00:34N 14°34' W 061°04'3 2.7
2015-May-23 23:33N 14°36' W 061°02'0 0.0
2015-May-23 22:33N 14°36' W 061°02'0 0.0
2015-May-23 21:33N 14°36' W 061°02'0 0.0
2015-May-23 20:33N 14°36' W 061°02'0 0.0
2015-May-23 19:33N 14°36' W 061°02'0 0.0
2015-May-23 18:33N 14°36' W 061°02'0 0.0
2015-May-23 17:33N 14°36' W 061°02'0 0.0
2015-May-23 16:33N 14°36' W 061°02'0 0.0
2015-May-23 15:33N 14°36' W 061°02'0 0.0
2015-May-23 14:33N 14°36' W 061°02'0 0.0
2015-May-23 13:33N 14°36' W 061°02'0 0.0
2015-May-23 12:33N 14°36' W 061°02'0 0.0
2015-May-23 11:33N 14°36' W 061°02'0 0.0
2015-May-23 10:33N 14°36' W 061°02'0 0.0
2015-May-23 09:33N 14°36' W 061°02'0 0.0
2015-May-23 08:33N 14°36' W 061°02'0 0.0
2015-May-23 07:33N 14°36' W 061°02'0 0.0
2015-May-23 06:33N 14°36' W 061°02'0 0.0
2015-May-23 05:33N 14°36' W 061°02'0 0.0
2015-May-23 04:33N 14°36' W 061°02'0 0.0
2015-May-23 03:33N 14°36' W 061°02'0 0.0
2015-May-23 02:33N 14°36' W 061°02'0 0.0
2015-May-23 01:33N 14°36' W 061°02'0 0.0
2015-May-23 00:33N 14°36' W 061°02'0 0.0
2015-May-22 23:33N 14°36' W 061°02'0 0.0
2015-May-22 22:33N 14°36' W 061°02'0 0.0
2015-May-22 21:33N 14°36' W 061°02'0 0.0
2015-May-22 20:33N 14°36' W 061°02'0 0.0
2015-May-22 19:33N 14°36' W 061°02'0 0.0
2015-May-22 18:33N 14°36' W 061°02'0 0.0
2015-May-22 17:33N 14°36' W 061°02'0 0.0
2015-May-22 16:33N 14°36' W 061°02'0 0.0
2015-May-22 15:33N 14°36' W 061°02'0 0.0
2015-May-22 14:33N 14°36' W 061°02'5 4.6
2015-May-22 13:33N 14°34' W 061°06'1 0.9
2015-May-22 12:33N 14°34' W 061°07'1 0.8
2015-May-22 11:33N 14°34' W 061°06'6 6.1
2015-May-22 10:33N 14°29' W 061°09'1010.0
2015-May-22 09:33N 14°19' W 061°11'1110.9
2015-May-22 08:33N 14°08' W 061°11'  
2015-May-14 21:17N 13°52' W 061°07'912.0
2015-May-14 20:31N 13°59' W 061°02'5 0.4
2015-May-14 09:34N 14°03' W 061°04'10 9.8
2015-May-14 08:33N 14°12' W 061°10'9 9.3
2015-May-14 07:33N 14°20' W 061°15'9 8.8
2015-May-14 06:33N 14°27' W 061°19'9 9.4
2015-May-14 05:33N 14°36' W 061°22'  
Track history (hours):
 
Tides and Currents Weather Stations Pressure Air Temp Water Temp Dewpoint Dewpoint Depression Visibility Wind Speed Wind Dir Waves Ship Positions

Lesley Pg

Last reported at 2015-May-24 05:29 UTC. Time now 2015-May-24 13:16 UTC.
Position N 13°60' W 060°41'.

Length 102 m; draft 6.1 m.

Type: Tanker. MMSI: 234910000.

Date/timePositionNaut miles runAvg speedWind from/ knotsBaromVisibWave heightAir tempDewpointWater temp
2015-May-24 05:29N 13°60' W 060°41'10 8.7
2015-May-24 04:22N 14°07' W 060°48'8 9.4
2015-May-24 03:34N 14°12' W 060°54'10 9.6
2015-May-24 02:33N 14°19' W 061°01'10 9.6
2015-May-24 01:34N 14°26' W 061°07'9 8.5
2015-May-24 00:34N 14°34' W 061°04'3 2.7
2015-May-23 23:33N 14°36' W 061°02'0 0.0
2015-May-23 22:33N 14°36' W 061°02'0 0.0
2015-May-23 21:33N 14°36' W 061°02'0 0.0
2015-May-23 20:33N 14°36' W 061°02'0 0.0
2015-May-23 19:33N 14°36' W 061°02'0 0.0
2015-May-23 18:33N 14°36' W 061°02'0 0.0
2015-May-23 17:33N 14°36' W 061°02'0 0.0
2015-May-23 16:33N 14°36' W 061°02'0 0.0
2015-May-23 15:33N 14°36' W 061°02'0 0.0
2015-May-23 14:33N 14°36' W 061°02'0 0.0
2015-May-23 13:33N 14°36' W 061°02'0 0.0
2015-May-23 12:33N 14°36' W 061°02'0 0.0
2015-May-23 11:33N 14°36' W 061°02'0 0.0
2015-May-23 10:33N 14°36' W 061°02'0 0.0
2015-May-23 09:33N 14°36' W 061°02'0 0.0
2015-May-23 08:33N 14°36' W 061°02'0 0.0
2015-May-23 07:33N 14°36' W 061°02'0 0.0
2015-May-23 06:33N 14°36' W 061°02'0 0.0
2015-May-23 05:33N 14°36' W 061°02'0 0.0
2015-May-23 04:33N 14°36' W 061°02'0 0.0
2015-May-23 03:33N 14°36' W 061°02'0 0.0
2015-May-23 02:33N 14°36' W 061°02'0 0.0
2015-May-23 01:33N 14°36' W 061°02'0 0.0
2015-May-23 00:33N 14°36' W 061°02'0 0.0
2015-May-22 23:33N 14°36' W 061°02'0 0.0
2015-May-22 22:33N 14°36' W 061°02'0 0.0
2015-May-22 21:33N 14°36' W 061°02'0 0.0
2015-May-22 20:33N 14°36' W 061°02'0 0.0
2015-May-22 19:33N 14°36' W 061°02'0 0.0
2015-May-22 18:33N 14°36' W 061°02'0 0.0
2015-May-22 17:33N 14°36' W 061°02'0 0.0
2015-May-22 16:33N 14°36' W 061°02'0 0.0
2015-May-22 15:33N 14°36' W 061°02'0 0.0
2015-May-22 14:33N 14°36' W 061°02'5 4.6
2015-May-22 13:33N 14°34' W 061°06'1 0.9
2015-May-22 12:33N 14°34' W 061°07'1 0.8
2015-May-22 11:33N 14°34' W 061°06'6 6.1
2015-May-22 10:33N 14°29' W 061°09'1010.0
2015-May-22 09:33N 14°19' W 061°11'1110.9
2015-May-22 08:33N 14°08' W 061°11'  
2015-May-14 21:17N 13°52' W 061°07'912.0
2015-May-14 20:31N 13°59' W 061°02'5 0.4
2015-May-14 09:34N 14°03' W 061°04'10 9.8
2015-May-14 08:33N 14°12' W 061°10'9 9.3
2015-May-14 07:33N 14°20' W 061°15'9 8.8
2015-May-14 06:33N 14°27' W 061°19'9 9.4
2015-May-14 05:33N 14°36' W 061°22'  

Dump ship's entire track history